Terminal Aerodrome Forecast
Issued by NWS Quad Cities IA IL

Home | Current Version | Previous Version | Text Only | Print | Product List | Glossary On
Versions: 1 2 3 4 5 6 7 8 9 10 11 12 13 14 15 16 17 18 19 20 21 22 23 24 25
000
FTUS43 KDVN 202331
TAFDBQ
TAF
KDBQ 202331Z 2100/2124 17012KT 5SM -SHRA OVC045
      TEMPO 2100/2102 3SM SHRA OVC025
     FM210300 22011KT 4SM -RA BR OVC030
     FM210600 23008KT 2SM BR OVC008
     FM211400 32005KT P6SM SKC=

USA.gov is the U.S. government's official web portal to all federal, state and local government web resources and services.